Time;durP1;ratioP1;P1;durP2;ratioP2;P2;SDS_P1;SDS_P2;PMS_P1;PMS_P2;Temp;Humidity;BMP_temperature;BMP_pressure;BME280_temperature;BME280_humidity;BME280_pressure;Samples;Min_cycle;Max_cycle;Signal;HPM_P1;HPM_P2
2021/07/09 00:01:34;;;;;;;23.52;12.23;;;;;;;;;;5010641;28;20118;-70
2021/07/09 00:04:01;;;;;;;17.27;10.68;;;;;;;;;;5011086;28;20454;-70
2021/07/09 00:06:28;;;;;;;16.48;11.98;;;;;;;;;;4997073;28;20113;-70
2021/07/09 00:08:56;;;;;;;16.73;11.27;;;;;;;;;;4994665;28;20049;-70
2021/07/09 00:11:23;;;;;;;21.85;12.68;;;;;;;;;;4996477;28;20496;-70
2021/07/09 00:13:50;;;;;;;19.33;13.18;;;;;;;;;;4993991;28;20041;-69
2021/07/09 00:16:18;;;;;;;18.88;12.48;;;;;;;;;;5014971;28;20104;-68
2021/07/09 00:18:46;;;;;;;19.20;12.80;;;;;;;;;;5012183;28;20062;-69
2021/07/09 00:21:14;;;;;;;18.63;12.13;;;;;;;;;;5016544;28;20021;-68
2021/07/09 00:23:42;;;;;;;20.05;10.85;;;;;;;;;;5015712;28;20092;-69
2021/07/09 00:26:09;;;;;;;18.55;10.27;;;;;;;;;;4999821;28;20030;-69
2021/07/09 00:28:37;;;;;;;15.88;11.20;;;;;;;;;;4998353;28;20049;-69
2021/07/09 00:31:04;;;;;;;16.52;10.95;;;;;;;;;;5000454;28;20026;-69
2021/07/09 00:33:31;;;;;;;19.83;11.85;;;;;;;;;;4997541;28;20026;-69
2021/07/09 00:35:58;;;;;;;23.17;13.43;;;;;;;;;;4998144;28;20073;-69
2021/07/09 00:38:25;;;;;;;19.67;12.73;;;;;;;;;;5011550;28;20052;-70
2021/07/09 00:40:52;;;;;;;17.80;11.70;;;;;;;;;;4993794;28;20487;-69
2021/07/09 00:43:20;;;;;;;16.38;12.10;;;;;;;;;;4992742;28;20036;-69
2021/07/09 00:45:47;;;;;;;16.95;12.57;;;;;;;;;;5008861;28;20154;-69
2021/07/09 00:48:14;;;;;;;19.42;13.25;;;;;;;;;;5007320;28;20487;-70
2021/07/09 00:50:41;;;;;;;18.35;13.50;;;;;;;;;;5010191;28;20026;-70
2021/07/09 00:53:08;;;;;;;22.38;13.52;;;;;;;;;;5007372;28;20037;-69
2021/07/09 00:55:35;;;;;;;15.18;11.63;;;;;;;;;;4989450;28;20068;-69
2021/07/09 00:58:03;;;;;;;17.88;11.40;;;;;;;;;;5006594;28;20029;-69
2021/07/09 01:00:32;;;;;;;18.83;11.77;;;;;;;;;;5008653;28;20026;-69
2021/07/09 01:02:59;;;;;;;16.98;12.30;;;;;;;;;;4991251;28;20084;-68
2021/07/09 01:05:27;;;;;;;23.48;12.63;;;;;;;;;;5007357;28;20018;-69
2021/07/09 01:07:54;;;;;;;16.60;11.82;;;;;;;;;;4991480;28;20088;-69
2021/07/09 01:10:22;;;;;;;14.77;11.05;;;;;;;;;;5012257;28;20445;-69
2021/07/09 01:12:49;;;;;;;17.08;12.15;;;;;;;;;;5009893;28;20056;-69
2021/07/09 01:15:18;;;;;;;20.60;12.32;;;;;;;;;;5000266;28;20037;-69
2021/07/09 01:17:45;;;;;;;17.48;11.50;;;;;;;;;;4996837;28;20054;-68
2021/07/09 01:20:13;;;;;;;16.33;11.43;;;;;;;;;;5012631;28;20037;-69
2021/07/09 01:22:44;;;;;;;17.75;12.45;;;;;;;;;;4991834;28;20049;-69
2021/07/09 01:25:22;;;;;;;16.55;13.15;;;;;;;;;;5011307;28;20382;-69
2021/07/09 01:27:50;;;;;;;19.35;12.73;;;;;;;;;;5004981;28;20083;-69
2021/07/09 01:30:20;;;;;;;17.02;12.48;;;;;;;;;;5009059;28;20018;-69
2021/07/09 01:32:47;;;;;;;17.25;12.35;;;;;;;;;;5007088;28;20490;-69
2021/07/09 01:35:15;;;;;;;20.75;13.65;;;;;;;;;;4993375;28;20030;-69
2021/07/09 01:37:42;;;;;;;21.83;12.80;;;;;;;;;;5008795;28;20029;-69
2021/07/09 01:40:11;;;;;;;22.35;14.10;;;;;;;;;;5011963;28;20392;-69
2021/07/09 01:42:39;;;;;;;22.27;15.32;;;;;;;;;;5007938;28;20045;-69
2021/07/09 01:45:06;;;;;;;22.85;14.27;;;;;;;;;;4997221;28;20025;-69
2021/07/09 01:47:33;;;;;;;21.92;14.80;;;;;;;;;;5006389;28;20431;-69
2021/07/09 01:50:01;;;;;;;20.25;15.00;;;;;;;;;;4996181;28;20113;-69
2021/07/09 01:52:29;;;;;;;23.40;14.80;;;;;;;;;;5009114;28;20026;-69
2021/07/09 01:54:59;;;;;;;20.65;15.68;;;;;;;;;;5011951;28;20475;-70
2021/07/09 01:57:27;;;;;;;24.65;15.80;;;;;;;;;;5008090;28;20045;-70
2021/07/09 01:59:55;;;;;;;24.27;16.38;;;;;;;;;;5011537;28;20084;-70
2021/07/09 02:02:22;;;;;;;25.90;17.02;;;;;;;;;;4989952;28;20506;-70
2021/07/09 02:04:50;;;;;;;22.85;16.58;;;;;;;;;;4991303;28;20080;-70
2021/07/09 02:07:18;;;;;;;27.27;17.13;;;;;;;;;;5000160;28;20505;-70
2021/07/09 02:09:47;;;;;;;22.65;15.27;;;;;;;;;;5001621;28;20552;-70
2021/07/09 02:12:15;;;;;;;25.85;16.02;;;;;;;;;;5009485;28;20036;-71
2021/07/09 02:14:42;;;;;;;20.85;15.00;;;;;;;;;;5007420;28;20128;-70
2021/07/09 02:17:14;;;;;;;23.05;14.68;;;;;;;;;;5009887;28;20022;-70
2021/07/09 02:19:41;;;;;;;23.20;15.70;;;;;;;;;;5008419;28;20018;-70
2021/07/09 02:22:10;;;;;;;23.80;15.32;;;;;;;;;;5006702;28;20021;-70
2021/07/09 02:24:38;;;;;;;20.33;15.25;;;;;;;;;;5006520;28;20038;-70
2021/07/09 02:27:06;;;;;;;24.05;15.43;;;;;;;;;;5005293;28;20498;-70
2021/07/09 02:29:34;;;;;;;24.38;15.60;;;;;;;;;;5002525;28;20026;-70
2021/07/09 02:32:01;;;;;;;25.95;17.10;;;;;;;;;;4989859;28;20100;-69
2021/07/09 02:34:30;;;;;;;25.63;16.40;;;;;;;;;;5006116;28;20113;-69
2021/07/09 02:36:57;;;;;;;21.85;15.95;;;;;;;;;;5008040;28;20026;-69
2021/07/09 02:39:25;;;;;;;26.73;16.33;;;;;;;;;;4988837;28;20034;-71
2021/07/09 02:41:53;;;;;;;21.27;15.95;;;;;;;;;;4997673;28;20025;-70
2021/07/09 02:44:21;;;;;;;27.88;17.25;;;;;;;;;;4998094;28;20038;-70
2021/07/09 02:46:48;;;;;;;26.77;18.35;;;;;;;;;;5016359;28;20030;-70
2021/07/09 02:49:15;;;;;;;25.30;18.05;;;;;;;;;;5007237;28;20030;-72
2021/07/09 02:51:43;;;;;;;24.85;18.27;;;;;;;;;;5029177;28;20044;-72
2021/07/09 02:54:10;;;;;;;32.85;21.23;;;;;;;;;;5031432;28;20068;-71
2021/07/09 02:56:37;;;;;;;24.35;19.48;;;;;;;;;;4999444;28;20507;-71
2021/07/09 02:59:05;;;;;;;29.58;21.58;;;;;;;;;;5008960;28;20030;-71
2021/07/09 03:01:32;;;;;;;32.05;22.00;;;;;;;;;;5004799;28;20124;-71
2021/07/09 03:03:59;;;;;;;33.03;21.48;;;;;;;;;;5006807;28;20091;-72
2021/07/09 03:06:26;;;;;;;32.33;21.35;;;;;;;;;;5002399;28;20490;-71
2021/07/09 03:08:54;;;;;;;33.20;21.95;;;;;;;;;;5010438;28;20092;-72
2021/07/09 03:11:22;;;;;;;35.50;23.60;;;;;;;;;;4984636;28;20042;-72
2021/07/09 03:13:49;;;;;;;30.50;23.42;;;;;;;;;;5020814;28;20032;-72
2021/07/09 03:16:16;;;;;;;39.55;24.58;;;;;;;;;;5024817;28;20040;-72
2021/07/09 03:18:43;;;;;;;33.03;24.60;;;;;;;;;;5025292;28;20502;-72
2021/07/09 03:21:10;;;;;;;31.95;24.45;;;;;;;;;;5026630;28;20109;-73
2021/07/09 03:23:37;;;;;;;34.50;25.08;;;;;;;;;;5022970;28;20025;-73
2021/07/09 03:26:04;;;;;;;35.08;26.92;;;;;;;;;;5028089;28;20039;-73
2021/07/09 03:28:32;;;;;;;35.10;25.83;;;;;;;;;;5025612;28;20018;-73
2021/07/09 03:30:59;;;;;;;39.42;29.63;;;;;;;;;;5018381;28;20513;-72
2021/07/09 03:33:26;;;;;;;46.13;29.45;;;;;;;;;;5013137;28;20053;-73
2021/07/09 03:35:53;;;;;;;40.15;29.48;;;;;;;;;;5007442;28;20380;-72
2021/07/09 03:38:21;;;;;;;38.00;28.23;;;;;;;;;;5029941;28;20032;-72
2021/07/09 03:40:48;;;;;;;39.13;29.50;;;;;;;;;;5024901;28;20479;-72
2021/07/09 03:43:15;;;;;;;42.53;28.73;;;;;;;;;;5011764;28;20490;-71
2021/07/09 03:45:43;;;;;;;40.05;29.42;;;;;;;;;;5014578;28;20033;-70
2021/07/09 03:48:10;;;;;;;41.35;27.60;;;;;;;;;;5029408;28;20025;-71
2021/07/09 03:50:37;;;;;;;34.28;25.77;;;;;;;;;;5028272;28;20022;-70
2021/07/09 03:53:04;;;;;;;37.40;26.30;;;;;;;;;;5007067;28;20038;-70
2021/07/09 03:55:31;;;;;;;36.45;24.58;;;;;;;;;;5013489;28;20068;-70
2021/07/09 03:57:58;;;;;;;32.67;24.63;;;;;;;;;;5016542;28;20029;-70
2021/07/09 04:00:25;;;;;;;32.17;24.60;;;;;;;;;;5033543;28;20025;-70
2021/07/09 04:02:53;;;;;;;37.30;24.85;;;;;;;;;;5019094;28;20038;-67
2021/07/09 04:05:20;;;;;;;33.17;23.80;;;;;;;;;;5002242;28;20506;-69
2021/07/09 04:07:47;;;;;;;31.67;23.35;;;;;;;;;;5009593;28;20034;-69
2021/07/09 04:10:14;;;;;;;36.38;25.95;;;;;;;;;;5008566;28;20053;-69
2021/07/09 04:12:41;;;;;;;31.88;22.50;;;;;;;;;;5004709;28;20054;-68
2021/07/09 04:15:09;;;;;;;32.05;24.15;;;;;;;;;;4995511;28;20022;-69
2021/07/09 04:17:36;;;;;;;35.30;23.40;;;;;;;;;;4994660;28;20044;-68
2021/07/09 04:20:04;;;;;;;32.10;23.55;;;;;;;;;;5007475;28;20033;-68
2021/07/09 04:22:31;;;;;;;37.65;25.50;;;;;;;;;;5003758;28;20398;-68
2021/07/09 04:24:58;;;;;;;33.22;23.25;;;;;;;;;;5007767;28;20026;-68
2021/07/09 04:27:25;;;;;;;43.45;23.35;;;;;;;;;;4992045;28;20029;-68
2021/07/09 04:29:53;;;;;;;30.92;23.60;;;;;;;;;;4993186;28;20034;-68
2021/07/09 04:32:20;;;;;;;37.05;23.08;;;;;;;;;;5006125;28;20042;-68
2021/07/09 04:34:47;;;;;;;35.22;23.50;;;;;;;;;;4991882;28;20564;-68
2021/07/09 04:37:14;;;;;;;30.38;22.85;;;;;;;;;;5006707;28;20049;-67
2021/07/09 04:39:41;;;;;;;43.90;24.38;;;;;;;;;;5008672;28;20177;-68
2021/07/09 04:42:08;;;;;;;32.75;24.63;;;;;;;;;;5008212;28;20371;-68
2021/07/09 04:44:36;;;;;;;33.35;23.45;;;;;;;;;;5006746;28;20044;-67
2021/07/09 04:47:06;;;;;;;32.38;24.38;;;;;;;;;;5010114;28;20728;-68
2021/07/09 04:49:33;;;;;;;33.30;22.67;;;;;;;;;;5009348;28;20029;-68
2021/07/09 04:52:00;;;;;;;36.22;23.95;;;;;;;;;;5008946;28;20030;-69
2021/07/09 04:54:27;;;;;;;33.42;23.75;;;;;;;;;;5010787;28;20425;-69
2021/07/09 04:56:55;;;;;;;29.67;24.33;;;;;;;;;;5010969;28;20054;-70
2021/07/09 04:59:22;;;;;;;32.55;24.23;;;;;;;;;;4991798;28;20053;-69
2021/07/09 05:01:49;;;;;;;32.88;24.25;;;;;;;;;;5009817;28;20113;-69
2021/07/09 05:04:16;;;;;;;35.10;26.20;;;;;;;;;;5008035;28;20393;-69
2021/07/09 05:06:43;;;;;;;32.38;22.50;;;;;;;;;;5008574;28;20299;-70
2021/07/09 05:09:11;;;;;;;30.70;24.95;;;;;;;;;;5000377;28;20131;-69
2021/07/09 05:11:38;;;;;;;33.78;23.27;;;;;;;;;;5000451;28;20488;-71
2021/07/09 05:14:06;;;;;;;30.20;22.83;;;;;;;;;;5002059;28;20034;-70
2021/07/09 05:16:36;;;;;;;32.30;23.60;;;;;;;;;;5003179;28;20532;-70
2021/07/09 05:19:05;;;;;;;30.45;23.52;;;;;;;;;;5008182;28;20095;-70
2021/07/09 05:21:32;;;;;;;35.13;22.40;;;;;;;;;;5009424;28;20026;-70
2021/07/09 05:24:08;;;;;;;31.65;23.23;;;;;;;;;;4993415;28;20041;-70
2021/07/09 05:26:35;;;;;;;33.63;24.65;;;;;;;;;;5009600;28;20018;-70
2021/07/09 05:29:02;;;;;;;32.75;23.58;;;;;;;;;;4990377;28;20042;-71
2021/07/09 05:31:30;;;;;;;30.80;22.45;;;;;;;;;;5006990;28;20021;-71
2021/07/09 05:33:57;;;;;;;27.88;21.63;;;;;;;;;;4993007;28;20099;-70
2021/07/09 05:36:24;;;;;;;33.15;23.10;;;;;;;;;;4991062;28;20037;-70
2021/07/09 05:38:51;;;;;;;29.42;22.92;;;;;;;;;;5006931;28;20120;-70
2021/07/09 05:41:18;;;;;;;30.08;21.33;;;;;;;;;;4991791;28;20057;-68
2021/07/09 05:43:45;;;;;;;28.00;21.60;;;;;;;;;;5006978;28;20371;-68
2021/07/09 05:46:13;;;;;;;29.02;21.92;;;;;;;;;;5009951;28;20026;-68
2021/07/09 05:48:40;;;;;;;29.27;22.27;;;;;;;;;;5007986;28;20026;-71
2021/07/09 05:51:07;;;;;;;33.15;22.10;;;;;;;;;;4992875;28;20026;-68
2021/07/09 05:53:34;;;;;;;27.42;22.92;;;;;;;;;;5008425;28;20026;-68
2021/07/09 05:56:01;;;;;;;31.95;24.50;;;;;;;;;;4989365;28;20087;-68
2021/07/09 05:58:28;;;;;;;38.95;26.33;;;;;;;;;;5009434;28;20060;-68
2021/07/09 06:00:56;;;;;;;36.38;28.08;;;;;;;;;;5011374;28;20022;-68
2021/07/09 06:03:23;;;;;;;47.15;30.50;;;;;;;;;;4991695;28;20072;-68
2021/07/09 06:05:50;;;;;;;40.28;31.48;;;;;;;;;;5007942;28;20360;-68
2021/07/09 06:08:17;;;;;;;40.25;32.88;;;;;;;;;;5006740;28;20053;-68
2021/07/09 06:10:44;;;;;;;40.47;32.53;;;;;;;;;;5011792;28;20160;-71
2021/07/09 06:13:12;;;;;;;40.40;30.83;;;;;;;;;;4991682;28;20045;-70
2021/07/09 06:15:39;;;;;;;36.67;30.00;;;;;;;;;;4985712;28;20032;-69
2021/07/09 06:18:06;;;;;;;38.35;28.52;;;;;;;;;;4999980;28;20034;-69
2021/07/09 06:20:33;;;;;;;33.78;26.65;;;;;;;;;;5010218;28;20018;-70
2021/07/09 06:23:00;;;;;;;34.08;24.95;;;;;;;;;;5003424;28;20129;-70
2021/07/09 06:25:29;;;;;;;34.60;24.30;;;;;;;;;;5010226;28;20471;-69
2021/07/09 06:27:56;;;;;;;33.00;25.50;;;;;;;;;;5010647;28;20033;-69
2021/07/09 06:30:23;;;;;;;35.97;26.23;;;;;;;;;;4992462;28;20104;-69
2021/07/09 06:32:50;;;;;;;31.27;23.17;;;;;;;;;;4991338;28;20030;-69
2021/07/09 06:35:17;;;;;;;29.40;21.55;;;;;;;;;;5010621;28;20109;-69
2021/07/09 06:37:45;;;;;;;26.58;20.55;;;;;;;;;;4991269;28;20490;-69
2021/07/09 06:40:12;;;;;;;24.08;19.17;;;;;;;;;;4991340;28;20033;-69
2021/07/09 06:42:39;;;;;;;25.60;20.67;;;;;;;;;;4992595;28;20065;-69
2021/07/09 06:45:06;;;;;;;22.65;18.30;;;;;;;;;;5008606;28;20030;-69
2021/07/09 06:47:34;;;;;;;24.50;18.73;;;;;;;;;;5004416;28;20025;-69
2021/07/09 06:50:01;;;;;;;24.65;18.02;;;;;;;;;;5010620;28;20026;-68
2021/07/09 06:52:28;;;;;;;21.13;17.73;;;;;;;;;;5009349;28;20459;-69
2021/07/09 06:54:55;;;;;;;24.40;17.77;;;;;;;;;;4996170;28;20030;-68
2021/07/09 06:57:22;;;;;;;21.35;17.02;;;;;;;;;;4996915;28;20057;-69
2021/07/09 06:59:49;;;;;;;21.63;16.98;;;;;;;;;;5014471;28;20018;-68
2021/07/09 07:02:16;;;;;;;17.98;16.00;;;;;;;;;;5013952;28;20018;-69
2021/07/09 07:04:44;;;;;;;19.13;16.13;;;;;;;;;;5017584;28;20021;-69
2021/07/09 07:07:11;;;;;;;17.55;14.00;;;;;;;;;;4992810;28;20034;-69
2021/07/09 07:09:38;;;;;;;16.38;12.93;;;;;;;;;;4994436;28;20136;-68
2021/07/09 07:12:07;;;;;;;13.68;9.38;;;;;;;;;;5014024;28;20100;-68
2021/07/09 07:14:37;;;;;;;12.85;10.02;;;;;;;;;;5003645;28;20038;-70
2021/07/09 07:17:04;;;;;;;11.65;9.43;;;;;;;;;;5011927;28;20045;-69
2021/07/09 07:19:31;;;;;;;8.80;6.93;;;;;;;;;;5008412;28;20506;-68
2021/07/09 07:22:01;;;;;;;10.27;5.70;;;;;;;;;;5009854;28;20034;-70
2021/07/09 07:24:30;;;;;;;8.88;5.78;;;;;;;;;;5008267;28;20065;-70
2021/07/09 07:27:00;;;;;;;5.93;5.32;;;;;;;;;;4994889;28;20069;-75
2021/07/09 07:29:27;;;;;;;11.02;4.43;;;;;;;;;;5010744;28;20026;-75
2021/07/09 07:31:54;;;;;;;4.82;3.40;;;;;;;;;;5002676;28;20041;-73
2021/07/09 07:34:22;;;;;;;4.30;2.88;;;;;;;;;;5009587;28;20052;-73
2021/07/09 07:36:49;;;;;;;4.80;3.72;;;;;;;;;;4993810;28;20041;-73
2021/07/09 07:39:17;;;;;;;4.97;3.33;;;;;;;;;;5010357;28;20025;-74
2021/07/09 07:41:44;;;;;;;6.30;3.92;;;;;;;;;;5012603;28;20026;-74
2021/07/09 07:44:11;;;;;;;4.68;3.10;;;;;;;;;;5009217;28;20138;-75
2021/07/09 07:46:38;;;;;;;6.18;4.00;;;;;;;;;;4995019;28;20032;-74
2021/07/09 07:49:05;;;;;;;6.88;4.25;;;;;;;;;;4993369;28;20037;-74
2021/07/09 07:51:32;;;;;;;7.80;3.40;;;;;;;;;;5012726;28;20025;-75
2021/07/09 07:53:59;;;;;;;7.95;3.10;;;;;;;;;;4992782;28;20868;-75
2021/07/09 07:56:27;;;;;;;6.45;3.72;;;;;;;;;;5010217;28;20025;-74
2021/07/09 07:58:54;;;;;;;6.97;4.43;;;;;;;;;;5010831;28;20037;-74
2021/07/09 08:01:21;;;;;;;7.10;4.57;;;;;;;;;;4991072;28;20121;-70
2021/07/09 08:03:48;;;;;;;8.20;5.65;;;;;;;;;;4993109;28;20037;-70
2021/07/09 08:06:15;;;;;;;9.15;6.18;;;;;;;;;;5005040;28;20049;-69
2021/07/09 08:08:43;;;;;;;4.97;4.43;;;;;;;;;;5010032;28;20038;-69
2021/07/09 08:11:11;;;;;;;8.88;6.28;;;;;;;;;;4991601;28;20057;-70
2021/07/09 08:13:39;;;;;;;8.70;6.43;;;;;;;;;;5015116;28;20100;-69
2021/07/09 08:16:07;;;;;;;9.02;6.72;;;;;;;;;;5023860;28;20079;-69
2021/07/09 08:18:35;;;;;;;10.45;6.25;;;;;;;;;;5030303;28;20029;-69
2021/07/09 08:21:02;;;;;;;8.00;6.38;;;;;;;;;;5032158;28;20025;-69
2021/07/09 08:23:30;;;;;;;10.93;6.55;;;;;;;;;;5032261;28;20040;-70
2021/07/09 08:25:57;;;;;;;7.82;6.28;;;;;;;;;;5019688;28;20057;-69
2021/07/09 08:28:26;;;;;;;13.07;6.57;;;;;;;;;;5033910;28;20064;-69
2021/07/09 08:30:54;;;;;;;11.05;6.45;;;;;;;;;;5005564;28;20069;-70
2021/07/09 08:33:21;;;;;;;8.70;6.53;;;;;;;;;;5017807;28;20492;-70
2021/07/09 08:35:49;;;;;;;8.75;6.40;;;;;;;;;;5012617;28;20502;-70
2021/07/09 08:38:16;;;;;;;8.88;6.45;;;;;;;;;;5014850;28;20501;-70
2021/07/09 08:40:43;;;;;;;7.43;5.68;;;;;;;;;;5014719;28;20061;-70
2021/07/09 08:43:10;;;;;;;11.63;6.80;;;;;;;;;;5009566;28;20115;-69
2021/07/09 08:45:38;;;;;;;8.40;5.30;;;;;;;;;;5012916;28;20033;-69
2021/07/09 08:48:06;;;;;;;7.82;5.05;;;;;;;;;;5020947;28;20029;-69
2021/07/09 08:50:33;;;;;;;9.73;6.32;;;;;;;;;;5029020;28;20029;-69
2021/07/09 08:53:00;;;;;;;8.23;5.65;;;;;;;;;;5014312;28;20025;-70
2021/07/09 08:55:27;;;;;;;8.63;6.20;;;;;;;;;;5030334;28;20109;-70
2021/07/09 08:57:55;;;;;;;9.30;7.15;;;;;;;;;;5030408;28;20037;-70
2021/07/09 09:00:28;;;;;;;11.60;7.57;;;;;;;;;;5017504;28;20029;-71
2021/07/09 09:02:55;;;;;;;9.05;6.93;;;;;;;;;;5031557;28;20033;-70
2021/07/09 09:05:26;;;;;;;12.60;7.72;;;;;;;;;;5025590;28;20029;-70
2021/07/09 09:08:04;;;;;;;11.07;6.97;;;;;;;;;;5012805;28;20029;-70
2021/07/09 09:10:52;;;;;;;10.43;7.40;;;;;;;;;;5017222;28;20038;-69
2021/07/09 09:13:21;;;;;;;9.57;8.63;;;;;;;;;;5010485;28;20498;-70
2021/07/09 09:16:15;;;;;;;11.70;8.88;;;;;;;;;;4997435;28;20067;-70
2021/07/09 09:18:43;;;;;;;12.53;9.17;;;;;;;;;;4992018;28;20124;-70
2021/07/09 09:21:12;;;;;;;10.55;8.57;;;;;;;;;;4992066;28;20031;-69
2021/07/09 09:23:50;;;;;;;9.60;8.65;;;;;;;;;;5008928;28;20557;-70
2021/07/09 09:26:53;;;;;;;14.77;8.82;;;;;;;;;;5028572;28;20025;-69
2021/07/09 09:29:26;;;;;;;9.48;8.20;;;;;;;;;;4990524;28;20105;-70
2021/07/09 09:32:00;;;;;;;8.35;7.25;;;;;;;;;;5014615;28;20037;-68
2021/07/09 09:34:38;;;;;;;10.13;7.05;;;;;;;;;;5018237;28;20049;-68
2021/07/09 09:37:05;;;;;;;10.98;9.00;;;;;;;;;;5032042;28;20585;-68
2021/07/09 09:39:32;;;;;;;8.40;7.40;;;;;;;;;;5013337;28;20037;-68
2021/07/09 09:42:21;;;;;;;11.02;7.80;;;;;;;;;;5006743;28;20489;-68
2021/07/09 09:45:14;;;;;;;13.95;8.55;;;;;;;;;;5020996;28;20037;-68
2021/07/09 09:47:41;;;;;;;18.00;9.27;;;;;;;;;;5027745;28;20524;-68
2021/07/09 09:50:09;;;;;;;9.75;8.70;;;;;;;;;;5012223;28;20102;-68
2021/07/09 09:52:40;;;;;;;13.90;9.45;;;;;;;;;;5013656;28;20029;-69
2021/07/09 09:55:12;;;;;;;11.10;9.68;;;;;;;;;;5004366;28;20065;-68
2021/07/09 09:57:40;;;;;;;13.30;9.80;;;;;;;;;;5021317;28;20040;-69
2021/07/09 10:00:09;;;;;;;14.18;9.88;;;;;;;;;;5009359;28;20037;-68
2021/07/09 10:02:36;;;;;;;11.82;9.93;;;;;;;;;;5030443;28;20041;-68
2021/07/09 10:05:04;;;;;;;11.00;9.80;;;;;;;;;;5012889;28;20041;-68
2021/07/09 10:07:35;;;;;;;17.58;10.10;;;;;;;;;;5028730;28;20036;-68
2021/07/09 10:10:03;;;;;;;9.13;8.23;;;;;;;;;;5013403;28;20617;-68
2021/07/09 10:12:31;;;;;;;9.77;7.95;;;;;;;;;;5016012;28;20129;-68
2021/07/09 10:14:58;;;;;;;7.75;6.72;;;;;;;;;;5014156;28;20382;-68
2021/07/09 10:17:27;;;;;;;8.38;6.88;;;;;;;;;;5014389;28;20443;-68
2021/07/09 10:19:55;;;;;;;7.07;6.32;;;;;;;;;;5009789;28;20041;-68
2021/07/09 10:22:22;;;;;;;8.05;7.25;;;;;;;;;;5016883;28;20053;-67
2021/07/09 10:24:54;;;;;;;7.82;6.70;;;;;;;;;;5025600;28;20029;-68
2021/07/09 10:27:26;;;;;;;8.02;6.63;;;;;;;;;;4994707;28;20025;-67
2021/07/09 10:29:58;;;;;;;10.85;7.25;;;;;;;;;;5013551;28;20065;-67
2021/07/09 10:32:57;;;;;;;7.72;6.60;;;;;;;;;;5018040;28;20029;-67
2021/07/09 10:35:41;;;;;;;10.40;8.18;;;;;;;;;;4971090;28;20436;-68
2021/07/09 10:38:09;;;;;;;9.63;8.48;;;;;;;;;;5007920;28;20379;-68
2021/07/09 10:40:37;;;;;;;9.93;8.80;;;;;;;;;;5013357;28;20075;-69
2021/07/09 10:43:05;;;;;;;10.70;9.30;;;;;;;;;;5017094;28;20136;-68
2021/07/09 10:45:34;;;;;;;10.70;9.57;;;;;;;;;;5010430;28;20030;-67
2021/07/09 10:48:04;;;;;;;9.85;8.70;;;;;;;;;;5014400;28;20024;-69
2021/07/09 10:50:39;;;;;;;10.68;9.23;;;;;;;;;;5011428;28;20033;-69
2021/07/09 10:53:15;;;;;;;11.43;10.23;;;;;;;;;;4998515;28;20621;-68
2021/07/09 10:55:48;;;;;;;12.73;10.68;;;;;;;;;;5025254;28;20025;-68
2021/07/09 10:58:21;;;;;;;12.13;10.43;;;;;;;;;;5025487;28;20088;-68
2021/07/09 11:01:06;;;;;;;14.02;11.20;;;;;;;;;;5017504;28;20057;-68
2021/07/09 11:03:57;;;;;;;16.13;12.52;;;;;;;;;;5034459;28;20061;-68
2021/07/09 11:06:33;;;;;;;16.45;13.25;;;;;;;;;;5013368;28;20080;-68
2021/07/09 11:09:02;;;;;;;16.35;12.68;;;;;;;;;;5015696;28;20045;-68
2021/07/09 11:11:30;;;;;;;16.17;14.00;;;;;;;;;;5009003;28;20047;-69
2021/07/09 11:14:01;;;;;;;17.60;13.25;;;;;;;;;;5015768;28;20038;-69
2021/07/09 11:16:30;;;;;;;17.33;14.23;;;;;;;;;;5014310;28;20038;-69
2021/07/09 11:19:03;;;;;;;16.88;14.43;;;;;;;;;;5016566;28;20120;-69
2021/07/09 11:21:31;;;;;;;14.45;12.95;;;;;;;;;;5015960;28;20026;-68
2021/07/09 11:24:04;;;;;;;16.45;13.63;;;;;;;;;;5001429;28;20042;-69
2021/07/09 11:26:33;;;;;;;14.65;13.05;;;;;;;;;;5015752;28;20040;-69
2021/07/09 11:29:00;;;;;;;13.43;12.00;;;;;;;;;;5017093;28;20528;-69
2021/07/09 11:31:35;;;;;;;14.05;12.55;;;;;;;;;;5006821;28;20125;-68
2021/07/09 11:34:05;;;;;;;15.23;11.85;;;;;;;;;;5026193;28;20029;-70
2021/07/09 11:36:41;;;;;;;16.00;12.45;;;;;;;;;;5007778;28;20030;-70
2021/07/09 11:39:10;;;;;;;13.88;12.45;;;;;;;;;;5006653;28;20037;-69
2021/07/09 11:41:54;;;;;;;14.15;12.10;;;;;;;;;;5016255;28;20025;-70
2021/07/09 11:44:29;;;;;;;12.57;11.23;;;;;;;;;;5002200;28;20497;-69
2021/07/09 11:46:57;;;;;;;11.73;9.90;;;;;;;;;;5014582;28;20045;-70
2021/07/09 11:49:26;;;;;;;12.07;10.52;;;;;;;;;;5005065;28;20033;-70
2021/07/09 11:51:55;;;;;;;11.60;10.07;;;;;;;;;;5015709;28;20037;-70
2021/07/09 11:54:27;;;;;;;11.75;9.43;;;;;;;;;;5015103;28;20045;-69
2021/07/09 11:56:55;;;;;;;11.30;10.10;;;;;;;;;;5016893;28;20046;-69
2021/07/09 11:59:22;;;;;;;10.90;9.80;;;;;;;;;;5015890;28;20482;-69
2021/07/09 12:02:04;;;;;;;11.40;10.20;;;;;;;;;;5016528;28;20465;-68
2021/07/09 12:04:32;;;;;;;12.93;9.90;;;;;;;;;;5015247;28;20041;-69
2021/07/09 12:07:17;;;;;;;10.98;9.13;;;;;;;;;;5012116;28;20057;-69
2021/07/09 12:09:45;;;;;;;11.02;9.80;;;;;;;;;;5003240;28;20049;-70
2021/07/09 12:12:13;;;;;;;11.23;10.13;;;;;;;;;;5014117;28;20091;-68
2021/07/09 12:15:01;;;;;;;13.20;9.95;;;;;;;;;;5015442;28;20065;-69
2021/07/09 12:17:38;;;;;;;11.07;9.75;;;;;;;;;;5018039;28;20041;-70
2021/07/09 12:20:13;;;;;;;10.05;9.05;;;;;;;;;;5019007;28;20056;-68
2021/07/09 12:22:42;;;;;;;11.35;9.13;;;;;;;;;;5002601;28;20512;-69
2021/07/09 12:25:12;;;;;;;10.68;8.02;;;;;;;;;;5020673;28;20022;-68
2021/07/09 12:27:39;;;;;;;9.93;8.88;;;;;;;;;;5032934;28;20020;-69
2021/07/09 12:30:11;;;;;;;10.95;8.45;;;;;;;;;;5032312;28;20067;-69
2021/07/09 12:32:51;;;;;;;9.18;8.18;;;;;;;;;;5032146;28;20049;-69
2021/07/09 12:35:19;;;;;;;10.50;9.35;;;;;;;;;;5032097;28;20030;-69
2021/07/09 12:37:56;;;;;;;11.32;9.60;;;;;;;;;;5022634;28;20068;-69
2021/07/09 12:40:28;;;;;;;12.65;9.27;;;;;;;;;;5031883;28;20021;-69
2021/07/09 12:43:08;;;;;;;10.25;9.20;;;;;;;;;;5025443;28;20038;-69
2021/07/09 12:45:35;;;;;;;10.50;8.80;;;;;;;;;;5028950;28;20046;-69
2021/07/09 12:48:02;;;;;;;11.55;9.40;;;;;;;;;;5026963;28;20044;-69
2021/07/09 12:50:33;;;;;;;9.85;8.85;;;;;;;;;;5015576;28;20064;-70
2021/07/09 12:53:18;;;;;;;9.85;8.85;;;;;;;;;;5031715;28;20021;-69
2021/07/09 12:55:45;;;;;;;9.68;8.68;;;;;;;;;;5022634;28;20394;-68
2021/07/09 12:58:14;;;;;;;10.07;8.05;;;;;;;;;;5011582;28;20032;-68
2021/07/09 13:01:06;;;;;;;9.20;8.35;;;;;;;;;;5011745;28;20034;-69
2021/07/09 13:03:34;;;;;;;12.80;8.93;;;;;;;;;;5004674;28;20107;-69
2021/07/09 13:06:02;;;;;;;7.80;7.00;;;;;;;;;;5032489;28;20087;-68
2021/07/09 13:08:30;;;;;;;8.43;7.47;;;;;;;;;;5032731;28;20099;-70
2021/07/09 13:11:11;;;;;;;8.73;7.30;;;;;;;;;;5014932;28;20037;-70
2021/07/09 13:13:39;;;;;;;6.53;5.90;;;;;;;;;;5025922;28;20025;-69
2021/07/09 13:16:08;;;;;;;8.77;7.15;;;;;;;;;;5022896;28;20017;-69
2021/07/09 13:18:36;;;;;;;6.85;6.00;;;;;;;;;;5012534;28;20025;-70
2021/07/09 13:21:05;;;;;;;8.40;6.00;;;;;;;;;;4995080;28;20054;-67
2021/07/09 13:23:32;;;;;;;7.13;6.10;;;;;;;;;;4998142;28;20030;-68
2021/07/09 13:26:11;;;;;;;6.78;5.97;;;;;;;;;;5003634;28;20116;-68
2021/07/09 13:28:42;;;;;;;8.38;5.97;;;;;;;;;;5019809;28;20482;-70
2021/07/09 13:31:10;;;;;;;6.18;5.57;;;;;;;;;;5022972;28;20033;-69
2021/07/09 13:33:42;;;;;;;12.60;6.18;;;;;;;;;;5029415;28;20036;-69
2021/07/09 13:36:14;;;;;;;7.15;5.40;;;;;;;;;;5032810;28;20160;-69
2021/07/09 13:38:45;;;;;;;5.65;5.05;;;;;;;;;;5018900;28;20017;-71
2021/07/09 13:41:13;;;;;;;6.57;5.70;;;;;;;;;;5022687;28;20447;-69
2021/07/09 13:43:40;;;;;;;7.38;6.20;;;;;;;;;;5020875;28;20038;-69
2021/07/09 13:46:07;;;;;;;6.00;5.30;;;;;;;;;;4995555;28;20049;-69
2021/07/09 13:48:35;;;;;;;7.65;5.05;;;;;;;;;;5020823;28;20025;-69
2021/07/09 13:51:02;;;;;;;17.98;6.32;;;;;;;;;;5014894;28;20026;-68
2021/07/09 13:53:29;;;;;;;7.80;7.03;;;;;;;;;;5004058;28;20383;-69
2021/07/09 13:55:56;;;;;;;7.60;6.50;;;;;;;;;;5030264;28;20025;-68
2021/07/09 13:58:23;;;;;;;8.65;5.40;;;;;;;;;;5014363;28;20084;-68
2021/07/09 14:00:50;;;;;;;5.95;4.75;;;;;;;;;;5031453;28;20052;-69
2021/07/09 14:03:18;;;;;;;6.88;5.53;;;;;;;;;;5029702;28;20091;-68
2021/07/09 14:05:45;;;;;;;8.57;5.97;;;;;;;;;;5021272;28;20021;-68
2021/07/09 14:08:12;;;;;;;9.88;5.57;;;;;;;;;;5028221;28;20034;-68
2021/07/09 14:10:39;;;;;;;6.40;5.22;;;;;;;;;;5022394;28;20106;-68
2021/07/09 14:13:07;;;;;;;8.23;6.03;;;;;;;;;;5008315;28;20030;-68
2021/07/09 14:15:34;;;;;;;7.68;5.55;;;;;;;;;;4997290;28;20068;-68
2021/07/09 14:18:05;;;;;;;5.00;4.60;;;;;;;;;;5019937;28;20034;-68
2021/07/09 14:20:32;;;;;;;5.55;4.43;;;;;;;;;;5010609;28;20029;-68
2021/07/09 14:22:59;;;;;;;5.50;4.95;;;;;;;;;;5012265;28;20064;-68
2021/07/09 14:25:26;;;;;;;6.78;4.80;;;;;;;;;;5005911;28;20033;-68
2021/07/09 14:27:54;;;;;;;6.68;5.10;;;;;;;;;;5018022;28;20033;-68
2021/07/09 14:30:21;;;;;;;7.40;5.30;;;;;;;;;;5031929;28;20025;-68
2021/07/09 14:32:48;;;;;;;6.90;5.03;;;;;;;;;;5012662;28;20429;-68
2021/07/09 14:35:18;;;;;;;6.82;5.13;;;;;;;;;;5029558;28;20061;-70
2021/07/09 14:37:46;;;;;;;7.13;4.28;;;;;;;;;;5014000;28;20069;-69